sensor_id;sensor_type;location;lat;lon;timestamp;P1;durP1;ratioP1;P2;durP2;ratioP2
21140;SDS011;10728;53.284;10.314;2022-12-10T01:33:23;19.70;;;8.73;;
21140;SDS011;10728;53.284;10.314;2022-12-10T01:36:30;17.83;;;8.53;;
21140;SDS011;10728;53.284;10.314;2022-12-10T01:39:31;19.10;;;8.93;;
21140;SDS011;10728;53.284;10.314;2022-12-10T01:41:58;19.27;;;8.97;;
21140;SDS011;10728;53.284;10.314;2022-12-10T01:46:54;17.73;;;8.37;;
21140;SDS011;10728;53.284;10.314;2022-12-10T01:49:37;18.30;;;8.40;;
21140;SDS011;10728;53.284;10.314;2022-12-10T01:52:06;19.37;;;9.23;;
21140;SDS011;10728;53.284;10.314;2022-12-10T01:54:38;15.13;;;7.77;;
21140;SDS011;10728;53.284;10.314;2022-12-10T01:57:17;12.43;;;6.70;;
21140;SDS011;10728;53.284;10.314;2022-12-10T01:59:45;9.90;;;5.57;;
21140;SDS011;10728;53.284;10.314;2022-12-10T02:05:04;12.77;;;6.33;;
21140;SDS011;10728;53.284;10.314;2022-12-10T02:07:43;9.90;;;6.00;;
21140;SDS011;10728;53.284;10.314;2022-12-10T02:13:45;11.97;;;6.20;;
21140;SDS011;10728;53.284;10.314;2022-12-10T02:16:29;8.67;;;5.07;;
21140;SDS011;10728;53.284;10.314;2022-12-10T02:19:00;8.20;;;4.90;;
21140;SDS011;10728;53.284;10.314;2022-12-10T02:21:32;8.73;;;4.30;;
21140;SDS011;10728;53.284;10.314;2022-12-10T02:24:03;6.60;;;4.10;;
21140;SDS011;10728;53.284;10.314;2022-12-10T02:29:39;8.40;;;4.30;;
21140;SDS011;10728;53.284;10.314;2022-12-10T02:32:11;7.30;;;4.47;;
21140;SDS011;10728;53.284;10.314;2022-12-10T02:34:40;7.27;;;4.57;;
21140;SDS011;10728;53.284;10.314;2022-12-10T02:37:10;6.93;;;4.53;;
21140;SDS011;10728;53.284;10.314;2022-12-10T02:39:53;6.47;;;3.83;;
21140;SDS011;10728;53.284;10.314;2022-12-10T02:42:19;5.90;;;3.70;;
21140;SDS011;10728;53.284;10.314;2022-12-10T02:44:47;7.97;;;4.33;;
21140;SDS011;10728;53.284;10.314;2022-12-10T02:47:15;7.57;;;3.97;;
21140;SDS011;10728;53.284;10.314;2022-12-10T02:49:45;8.13;;;4.70;;
21140;SDS011;10728;53.284;10.314;2022-12-10T02:52:13;8.67;;;4.83;;
21140;SDS011;10728;53.284;10.314;2022-12-10T03:03:32;9.53;;;5.50;;
21140;SDS011;10728;53.284;10.314;2022-12-10T03:08:48;10.10;;;5.40;;
21140;SDS011;10728;53.284;10.314;2022-12-10T03:11:21;10.00;;;5.93;;
21140;SDS011;10728;53.284;10.314;2022-12-10T03:16:26;10.73;;;6.10;;
21140;SDS011;10728;53.284;10.314;2022-12-10T03:18:56;10.53;;;6.13;;
21140;SDS011;10728;53.284;10.314;2022-12-10T03:21:26;11.63;;;7.07;;
21140;SDS011;10728;53.284;10.314;2022-12-10T03:23:52;13.93;;;6.70;;
21140;SDS011;10728;53.284;10.314;2022-12-10T03:26:18;11.20;;;6.83;;
21140;SDS011;10728;53.284;10.314;2022-12-10T03:28:46;12.50;;;6.70;;
21140;SDS011;10728;53.284;10.314;2022-12-10T03:31:15;11.70;;;6.67;;
21140;SDS011;10728;53.284;10.314;2022-12-10T03:33:41;15.13;;;7.40;;
21140;SDS011;10728;53.284;10.314;2022-12-10T03:36:08;13.13;;;7.13;;
21140;SDS011;10728;53.284;10.314;2022-12-10T03:38:34;13.93;;;7.97;;
21140;SDS011;10728;53.284;10.314;2022-12-10T03:41:00;13.43;;;7.80;;
21140;SDS011;10728;53.284;10.314;2022-12-10T03:43:27;12.90;;;7.70;;
21140;SDS011;10728;53.284;10.314;2022-12-10T03:45:54;12.43;;;6.63;;
21140;SDS011;10728;53.284;10.314;2022-12-10T03:48:21;13.23;;;7.10;;
21140;SDS011;10728;53.284;10.314;2022-12-10T03:50:47;13.97;;;8.40;;
21140;SDS011;10728;53.284;10.314;2022-12-10T03:53:13;14.83;;;8.10;;
21140;SDS011;10728;53.284;10.314;2022-12-10T03:55:39;14.23;;;8.03;;
21140;SDS011;10728;53.284;10.314;2022-12-10T03:58:05;16.60;;;8.33;;
21140;SDS011;10728;53.284;10.314;2022-12-10T04:00:30;15.20;;;8.00;;
21140;SDS011;10728;53.284;10.314;2022-12-10T04:02:56;15.23;;;7.83;;
21140;SDS011;10728;53.284;10.314;2022-12-10T04:05:22;14.77;;;8.07;;
21140;SDS011;10728;53.284;10.314;2022-12-10T04:07:48;15.90;;;8.43;;
21140;SDS011;10728;53.284;10.314;2022-12-10T04:10:14;20.10;;;9.77;;
21140;SDS011;10728;53.284;10.314;2022-12-10T04:12:40;19.70;;;8.63;;
21140;SDS011;10728;53.284;10.314;2022-12-10T04:15:06;16.90;;;8.33;;
21140;SDS011;10728;53.284;10.314;2022-12-10T04:17:51;15.70;;;8.73;;
21140;SDS011;10728;53.284;10.314;2022-12-10T04:20:17;20.10;;;9.70;;
21140;SDS011;10728;53.284;10.314;2022-12-10T04:23:02;24.93;;;10.07;;
21140;SDS011;10728;53.284;10.314;2022-12-10T04:25:46;18.53;;;9.37;;
21140;SDS011;10728;53.284;10.314;2022-12-10T04:28:32;22.37;;;11.13;;
21140;SDS011;10728;53.284;10.314;2022-12-10T04:30:58;20.20;;;10.70;;
21140;SDS011;10728;53.284;10.314;2022-12-10T04:33:24;23.83;;;11.33;;
21140;SDS011;10728;53.284;10.314;2022-12-10T04:35:50;20.57;;;10.60;;
21140;SDS011;10728;53.284;10.314;2022-12-10T04:38:15;19.30;;;9.80;;
21140;SDS011;10728;53.284;10.314;2022-12-10T04:40:41;20.73;;;11.00;;
21140;SDS011;10728;53.284;10.314;2022-12-10T04:43:07;18.93;;;10.90;;
21140;SDS011;10728;53.284;10.314;2022-12-10T04:45:33;22.43;;;10.97;;
21140;SDS011;10728;53.284;10.314;2022-12-10T04:48:00;22.40;;;10.77;;
21140;SDS011;10728;53.284;10.314;2022-12-10T04:50:27;21.57;;;11.17;;
21140;SDS011;10728;53.284;10.314;2022-12-10T04:52:53;25.23;;;11.80;;
21140;SDS011;10728;53.284;10.314;2022-12-10T04:55:19;22.60;;;11.30;;
21140;SDS011;10728;53.284;10.314;2022-12-10T04:57:46;24.27;;;11.87;;
21140;SDS011;10728;53.284;10.314;2022-12-10T05:00:13;19.20;;;10.00;;
21140;SDS011;10728;53.284;10.314;2022-12-10T05:02:39;24.40;;;10.93;;
21140;SDS011;10728;53.284;10.314;2022-12-10T05:05:05;23.10;;;11.90;;
21140;SDS011;10728;53.284;10.314;2022-12-10T05:07:32;23.60;;;11.70;;
21140;SDS011;10728;53.284;10.314;2022-12-10T05:10:02;19.80;;;11.03;;
21140;SDS011;10728;53.284;10.314;2022-12-10T05:12:28;20.70;;;10.97;;
21140;SDS011;10728;53.284;10.314;2022-12-10T05:14:54;19.47;;;10.70;;
21140;SDS011;10728;53.284;10.314;2022-12-10T05:17:20;24.13;;;11.40;;
21140;SDS011;10728;53.284;10.314;2022-12-10T05:19:46;25.30;;;10.80;;
21140;SDS011;10728;53.284;10.314;2022-12-10T05:22:11;22.57;;;11.03;;
21140;SDS011;10728;53.284;10.314;2022-12-10T05:24:56;21.23;;;10.77;;
21140;SDS011;10728;53.284;10.314;2022-12-10T05:27:21;22.43;;;11.53;;
21140;SDS011;10728;53.284;10.314;2022-12-10T05:29:47;22.20;;;11.17;;
21140;SDS011;10728;53.284;10.314;2022-12-10T05:32:13;21.23;;;11.37;;
21140;SDS011;10728;53.284;10.314;2022-12-10T05:34:39;29.03;;;13.30;;
21140;SDS011;10728;53.284;10.314;2022-12-10T05:37:05;26.60;;;12.70;;
21140;SDS011;10728;53.284;10.314;2022-12-10T05:39:30;21.30;;;10.70;;
21140;SDS011;10728;53.284;10.314;2022-12-10T05:41:56;22.57;;;11.70;;
21140;SDS011;10728;53.284;10.314;2022-12-10T05:44:22;19.93;;;10.77;;
21140;SDS011;10728;53.284;10.314;2022-12-10T05:46:48;17.47;;;8.97;;
21140;SDS011;10728;53.284;10.314;2022-12-10T05:49:14;19.03;;;8.13;;
21140;SDS011;10728;53.284;10.314;2022-12-10T05:51:40;16.43;;;7.70;;
21140;SDS011;10728;53.284;10.314;2022-12-10T05:54:06;15.10;;;7.53;;
21140;SDS011;10728;53.284;10.314;2022-12-10T05:56:34;16.53;;;9.60;;
21140;SDS011;10728;53.284;10.314;2022-12-10T05:59:01;15.33;;;8.70;;
21140;SDS011;10728;53.284;10.314;2022-12-10T06:01:29;19.03;;;9.67;;
21140;SDS011;10728;53.284;10.314;2022-12-10T06:03:59;20.07;;;10.03;;
21140;SDS011;10728;53.284;10.314;2022-12-10T06:06:30;24.37;;;11.30;;
21140;SDS011;10728;53.284;10.314;2022-12-10T06:08:58;20.10;;;10.73;;
21140;SDS011;10728;53.284;10.314;2022-12-10T06:11:24;20.70;;;10.77;;
21140;SDS011;10728;53.284;10.314;2022-12-10T06:13:51;24.57;;;11.17;;
21140;SDS011;10728;53.284;10.314;2022-12-10T06:16:18;22.20;;;11.67;;
21140;SDS011;10728;53.284;10.314;2022-12-10T06:18:43;19.43;;;10.97;;
21140;SDS011;10728;53.284;10.314;2022-12-10T06:21:11;20.70;;;11.27;;
21140;SDS011;10728;53.284;10.314;2022-12-10T06:23:39;22.03;;;11.63;;
21140;SDS011;10728;53.284;10.314;2022-12-10T06:26:09;21.97;;;11.70;;
21140;SDS011;10728;53.284;10.314;2022-12-10T06:28:39;25.00;;;11.50;;
21140;SDS011;10728;53.284;10.314;2022-12-10T06:31:05;15.07;;;8.60;;
21140;SDS011;10728;53.284;10.314;2022-12-10T06:33:37;16.30;;;8.73;;
21140;SDS011;10728;53.284;10.314;2022-12-10T06:36:03;14.57;;;8.03;;
21140;SDS011;10728;53.284;10.314;2022-12-10T06:38:30;18.63;;;9.70;;
21140;SDS011;10728;53.284;10.314;2022-12-10T06:40:57;22.93;;;12.30;;
21140;SDS011;10728;53.284;10.314;2022-12-10T06:43:23;18.33;;;10.10;;
21140;SDS011;10728;53.284;10.314;2022-12-10T06:45:49;17.33;;;8.83;;
21140;SDS011;10728;53.284;10.314;2022-12-10T06:48:14;18.03;;;10.40;;
21140;SDS011;10728;53.284;10.314;2022-12-10T06:50:41;18.33;;;9.63;;
21140;SDS011;10728;53.284;10.314;2022-12-10T06:53:07;24.33;;;12.13;;
21140;SDS011;10728;53.284;10.314;2022-12-10T06:55:32;21.10;;;11.27;;
21140;SDS011;10728;53.284;10.314;2022-12-10T06:57:58;17.97;;;8.93;;
21140;SDS011;10728;53.284;10.314;2022-12-10T07:00:28;21.97;;;10.73;;
21140;SDS011;10728;53.284;10.314;2022-12-10T07:02:54;16.37;;;9.33;;
21140;SDS011;10728;53.284;10.314;2022-12-10T07:05:20;18.37;;;9.70;;
21140;SDS011;10728;53.284;10.314;2022-12-10T07:07:46;19.27;;;10.37;;
21140;SDS011;10728;53.284;10.314;2022-12-10T07:10:13;21.37;;;10.20;;
21140;SDS011;10728;53.284;10.314;2022-12-10T07:12:39;18.47;;;9.90;;
21140;SDS011;10728;53.284;10.314;2022-12-10T07:15:05;20.47;;;10.83;;
21140;SDS011;10728;53.284;10.314;2022-12-10T07:17:31;20.97;;;12.00;;
21140;SDS011;10728;53.284;10.314;2022-12-10T07:19:57;20.20;;;11.10;;
21140;SDS011;10728;53.284;10.314;2022-12-10T07:22:26;21.83;;;11.60;;
21140;SDS011;10728;53.284;10.314;2022-12-10T07:24:52;17.00;;;10.40;;
21140;SDS011;10728;53.284;10.314;2022-12-10T07:27:18;18.60;;;10.73;;
21140;SDS011;10728;53.284;10.314;2022-12-10T07:29:43;24.70;;;12.13;;
21140;SDS011;10728;53.284;10.314;2022-12-10T07:32:10;24.07;;;12.37;;
21140;SDS011;10728;53.284;10.314;2022-12-10T07:34:36;22.00;;;11.43;;
21140;SDS011;10728;53.284;10.314;2022-12-10T07:37:02;23.40;;;11.03;;
21140;SDS011;10728;53.284;10.314;2022-12-10T07:39:28;25.30;;;12.10;;
21140;SDS011;10728;53.284;10.314;2022-12-10T07:41:53;22.23;;;11.40;;
21140;SDS011;10728;53.284;10.314;2022-12-10T07:44:20;22.63;;;11.00;;
21140;SDS011;10728;53.284;10.314;2022-12-10T07:46:51;20.27;;;10.63;;
21140;SDS011;10728;53.284;10.314;2022-12-10T07:49:17;22.10;;;11.93;;
21140;SDS011;10728;53.284;10.314;2022-12-10T07:51:47;21.10;;;11.47;;
21140;SDS011;10728;53.284;10.314;2022-12-10T07:54:14;22.63;;;12.10;;
21140;SDS011;10728;53.284;10.314;2022-12-10T07:56:40;26.10;;;13.20;;
21140;SDS011;10728;53.284;10.314;2022-12-10T07:59:06;29.50;;;13.53;;
21140;SDS011;10728;53.284;10.314;2022-12-10T08:01:32;27.43;;;14.90;;
21140;SDS011;10728;53.284;10.314;2022-12-10T08:03:58;23.97;;;12.43;;
21140;SDS011;10728;53.284;10.314;2022-12-10T08:06:28;24.50;;;12.50;;
21140;SDS011;10728;53.284;10.314;2022-12-10T08:08:54;20.83;;;11.33;;
21140;SDS011;10728;53.284;10.314;2022-12-10T08:14:42;21.90;;;11.17;;
21140;SDS011;10728;53.284;10.314;2022-12-10T08:17:14;22.40;;;11.17;;
21140;SDS011;10728;53.284;10.314;2022-12-10T08:19:41;26.43;;;13.67;;
21140;SDS011;10728;53.284;10.314;2022-12-10T08:22:08;26.37;;;12.73;;
21140;SDS011;10728;53.284;10.314;2022-12-10T08:24:34;25.30;;;12.93;;
21140;SDS011;10728;53.284;10.314;2022-12-10T08:27:00;22.17;;;11.97;;
21140;SDS011;10728;53.284;10.314;2022-12-10T08:29:27;27.87;;;12.90;;
21140;SDS011;10728;53.284;10.314;2022-12-10T08:31:55;26.63;;;13.13;;
21140;SDS011;10728;53.284;10.314;2022-12-10T08:34:21;24.87;;;12.90;;
21140;SDS011;10728;53.284;10.314;2022-12-10T08:36:47;26.40;;;14.17;;
21140;SDS011;10728;53.284;10.314;2022-12-10T08:39:13;26.10;;;13.57;;
21140;SDS011;10728;53.284;10.314;2022-12-10T08:41:42;25.00;;;12.70;;
21140;SDS011;10728;53.284;10.314;2022-12-10T08:44:11;23.70;;;12.07;;
21140;SDS011;10728;53.284;10.314;2022-12-10T08:46:38;25.07;;;12.60;;
21140;SDS011;10728;53.284;10.314;2022-12-10T08:49:04;26.20;;;12.80;;
21140;SDS011;10728;53.284;10.314;2022-12-10T08:51:32;28.80;;;13.80;;
21140;SDS011;10728;53.284;10.314;2022-12-10T08:53:58;27.20;;;13.43;;
21140;SDS011;10728;53.284;10.314;2022-12-10T08:56:24;24.77;;;13.73;;
21140;SDS011;10728;53.284;10.314;2022-12-10T08:58:50;27.43;;;12.83;;
21140;SDS011;10728;53.284;10.314;2022-12-10T09:01:17;26.83;;;13.53;;
21140;SDS011;10728;53.284;10.314;2022-12-10T09:03:46;27.10;;;13.87;;
21140;SDS011;10728;53.284;10.314;2022-12-10T09:06:13;28.53;;;14.40;;
21140;SDS011;10728;53.284;10.314;2022-12-10T09:08:41;27.20;;;12.50;;
21140;SDS011;10728;53.284;10.314;2022-12-10T09:11:11;28.83;;;13.87;;
21140;SDS011;10728;53.284;10.314;2022-12-10T09:13:43;25.83;;;12.07;;
21140;SDS011;10728;53.284;10.314;2022-12-10T09:16:09;27.90;;;13.57;;
21140;SDS011;10728;53.284;10.314;2022-12-10T09:18:36;27.93;;;13.37;;
21140;SDS011;10728;53.284;10.314;2022-12-10T09:21:09;28.67;;;13.83;;
21140;SDS011;10728;53.284;10.314;2022-12-10T09:23:39;25.47;;;12.93;;
21140;SDS011;10728;53.284;10.314;2022-12-10T09:26:06;24.53;;;12.47;;
21140;SDS011;10728;53.284;10.314;2022-12-10T09:28:33;25.03;;;12.37;;
21140;SDS011;10728;53.284;10.314;2022-12-10T09:30:59;25.20;;;12.23;;
21140;SDS011;10728;53.284;10.314;2022-12-10T09:33:26;23.73;;;11.70;;
21140;SDS011;10728;53.284;10.314;2022-12-10T09:38:50;26.80;;;12.37;;
21140;SDS011;10728;53.284;10.314;2022-12-10T09:44:03;25.43;;;11.97;;
21140;SDS011;10728;53.284;10.314;2022-12-10T09:46:52;26.97;;;12.97;;
21140;SDS011;10728;53.284;10.314;2022-12-10T09:52:12;29.20;;;13.73;;
21140;SDS011;10728;53.284;10.314;2022-12-10T09:57:48;30.83;;;14.20;;
21140;SDS011;10728;53.284;10.314;2022-12-10T10:00:28;25.27;;;12.77;;
21140;SDS011;10728;53.284;10.314;2022-12-10T10:03:00;26.23;;;13.10;;
21140;SDS011;10728;53.284;10.314;2022-12-10T10:05:28;23.93;;;12.50;;
21140;SDS011;10728;53.284;10.314;2022-12-10T10:08:36;23.70;;;12.87;;
21140;SDS011;10728;53.284;10.314;2022-12-10T10:11:24;26.43;;;12.13;;
21140;SDS011;10728;53.284;10.314;2022-12-10T10:14:04;25.67;;;13.10;;
21140;SDS011;10728;53.284;10.314;2022-12-10T10:20:19;26.33;;;12.00;;
21140;SDS011;10728;53.284;10.314;2022-12-10T10:22:46;25.73;;;12.60;;
21140;SDS011;10728;53.284;10.314;2022-12-10T10:25:15;25.00;;;11.60;;
21140;SDS011;10728;53.284;10.314;2022-12-10T10:28:37;24.73;;;11.73;;
21140;SDS011;10728;53.284;10.314;2022-12-10T10:31:12;27.57;;;12.90;;
21140;SDS011;10728;53.284;10.314;2022-12-10T10:33:47;24.17;;;12.70;;
21140;SDS011;10728;53.284;10.314;2022-12-10T10:36:15;31.13;;;12.47;;
21140;SDS011;10728;53.284;10.314;2022-12-10T10:38:46;24.30;;;12.03;;
21140;SDS011;10728;53.284;10.314;2022-12-10T10:41:13;25.20;;;12.43;;
21140;SDS011;10728;53.284;10.314;2022-12-10T10:43:40;26.77;;;12.67;;
21140;SDS011;10728;53.284;10.314;2022-12-10T10:46:44;28.17;;;12.50;;
21140;SDS011;10728;53.284;10.314;2022-12-10T10:49:33;23.43;;;13.00;;
21140;SDS011;10728;53.284;10.314;2022-12-10T10:52:00;24.07;;;11.87;;
21140;SDS011;10728;53.284;10.314;2022-12-10T10:55:34;32.27;;;13.23;;
21140;SDS011;10728;53.284;10.314;2022-12-10T10:58:24;29.23;;;13.13;;
21140;SDS011;10728;53.284;10.314;2022-12-10T11:00:55;26.70;;;13.53;;
21140;SDS011;10728;53.284;10.314;2022-12-10T11:03:48;28.43;;;12.53;;
21140;SDS011;10728;53.284;10.314;2022-12-10T11:06:33;21.83;;;11.20;;
21140;SDS011;10728;53.284;10.314;2022-12-10T11:08:59;23.90;;;11.63;;
21140;SDS011;10728;53.284;10.314;2022-12-10T11:17:12;28.13;;;13.13;;
21140;SDS011;10728;53.284;10.314;2022-12-10T11:20:16;25.87;;;11.80;;
21140;SDS011;10728;53.284;10.314;2022-12-10T11:23:10;26.33;;;12.83;;
21140;SDS011;10728;53.284;10.314;2022-12-10T11:25:58;23.50;;;13.87;;
21140;SDS011;10728;53.284;10.314;2022-12-10T11:34:36;30.67;;;12.73;;
21140;SDS011;10728;53.284;10.314;2022-12-10T11:37:22;25.23;;;11.73;;
21140;SDS011;10728;53.284;10.314;2022-12-10T11:40:06;21.60;;;11.80;;
21140;SDS011;10728;53.284;10.314;2022-12-10T11:45:53;26.13;;;12.13;;
21140;SDS011;10728;53.284;10.314;2022-12-10T11:51:06;25.37;;;11.97;;
21140;SDS011;10728;53.284;10.314;2022-12-10T11:58:52;25.13;;;12.87;;
21140;SDS011;10728;53.284;10.314;2022-12-10T12:01:44;27.13;;;12.23;;
21140;SDS011;10728;53.284;10.314;2022-12-10T12:04:51;21.80;;;12.40;;
21140;SDS011;10728;53.284;10.314;2022-12-10T12:07:39;28.47;;;13.00;;
21140;SDS011;10728;53.284;10.314;2022-12-10T12:12:57;24.13;;;12.20;;
21140;SDS011;10728;53.284;10.314;2022-12-10T12:15:36;27.17;;;12.93;;
21140;SDS011;10728;53.284;10.314;2022-12-10T12:18:16;29.80;;;13.40;;
21140;SDS011;10728;53.284;10.314;2022-12-10T12:23:16;25.00;;;13.03;;
21140;SDS011;10728;53.284;10.314;2022-12-10T12:29:08;27.40;;;14.13;;
21140;SDS011;10728;53.284;10.314;2022-12-10T12:34:47;26.87;;;13.10;;
21140;SDS011;10728;53.284;10.314;2022-12-10T12:37:28;27.30;;;12.97;;
21140;SDS011;10728;53.284;10.314;2022-12-10T12:40:00;24.20;;;12.83;;
21140;SDS011;10728;53.284;10.314;2022-12-10T12:42:49;23.90;;;13.23;;
21140;SDS011;10728;53.284;10.314;2022-12-10T12:45:44;25.00;;;12.80;;
21140;SDS011;10728;53.284;10.314;2022-12-10T12:51:06;24.63;;;12.37;;
21140;SDS011;10728;53.284;10.314;2022-12-10T12:53:35;24.03;;;10.93;;
21140;SDS011;10728;53.284;10.314;2022-12-10T12:56:32;25.57;;;12.33;;
21140;SDS011;10728;53.284;10.314;2022-12-10T13:05:02;22.70;;;11.57;;
21140;SDS011;10728;53.284;10.314;2022-12-10T13:07:33;25.03;;;12.90;;
21140;SDS011;10728;53.284;10.314;2022-12-10T13:12:44;22.47;;;12.33;;
21140;SDS011;10728;53.284;10.314;2022-12-10T13:20:33;21.13;;;11.03;;
21140;SDS011;10728;53.284;10.314;2022-12-10T13:23:05;22.97;;;11.20;;
21140;SDS011;10728;53.284;10.314;2022-12-10T13:26:17;23.63;;;11.27;;
21140;SDS011;10728;53.284;10.314;2022-12-10T13:28:50;22.97;;;11.93;;
21140;SDS011;10728;53.284;10.314;2022-12-10T13:31:36;23.03;;;11.83;;
21140;SDS011;10728;53.284;10.314;2022-12-10T13:36:35;18.67;;;10.10;;
21140;SDS011;10728;53.284;10.314;2022-12-10T13:39:46;21.63;;;10.23;;
21140;SDS011;10728;53.284;10.314;2022-12-10T13:42:35;18.17;;;8.93;;
21140;SDS011;10728;53.284;10.314;2022-12-10T14:11:03;18.00;;;9.90;;
21140;SDS011;10728;53.284;10.314;2022-12-10T14:13:46;19.80;;;9.47;;
21140;SDS011;10728;53.284;10.314;2022-12-10T14:16:18;19.63;;;10.33;;
21140;SDS011;10728;53.284;10.314;2022-12-10T14:18:48;18.73;;;10.43;;
21140;SDS011;10728;53.284;10.314;2022-12-10T14:21:20;19.87;;;9.97;;
21140;SDS011;10728;53.284;10.314;2022-12-10T14:23:46;15.80;;;9.60;;
21140;SDS011;10728;53.284;10.314;2022-12-10T14:26:28;18.23;;;9.33;;
21140;SDS011;10728;53.284;10.314;2022-12-10T14:28:58;16.40;;;8.93;;
21140;SDS011;10728;53.284;10.314;2022-12-10T14:31:29;17.67;;;9.43;;
21140;SDS011;10728;53.284;10.314;2022-12-10T14:34:03;21.77;;;10.03;;
21140;SDS011;10728;53.284;10.314;2022-12-10T14:36:55;20.57;;;9.83;;
21140;SDS011;10728;53.284;10.314;2022-12-10T14:39:39;19.20;;;9.90;;
21140;SDS011;10728;53.284;10.314;2022-12-10T14:42:31;20.40;;;8.60;;
21140;SDS011;10728;53.284;10.314;2022-12-10T14:44:58;14.03;;;8.00;;
21140;SDS011;10728;53.284;10.314;2022-12-10T14:48:24;17.20;;;8.53;;
21140;SDS011;10728;53.284;10.314;2022-12-10T14:51:52;17.50;;;9.13;;
21140;SDS011;10728;53.284;10.314;2022-12-10T14:54:47;15.53;;;8.43;;
21140;SDS011;10728;53.284;10.314;2022-12-10T14:57:40;17.80;;;9.53;;
21140;SDS011;10728;53.284;10.314;2022-12-10T15:00:14;18.07;;;9.20;;
21140;SDS011;10728;53.284;10.314;2022-12-10T15:03:39;18.90;;;9.27;;
21140;SDS011;10728;53.284;10.314;2022-12-10T15:07:23;17.63;;;9.53;;
21140;SDS011;10728;53.284;10.314;2022-12-10T15:09:55;21.00;;;9.80;;
21140;SDS011;10728;53.284;10.314;2022-12-10T15:12:29;17.37;;;8.77;;
21140;SDS011;10728;53.284;10.314;2022-12-10T15:15:40;17.53;;;9.20;;
21140;SDS011;10728;53.284;10.314;2022-12-10T15:23:50;14.97;;;9.17;;
21140;SDS011;10728;53.284;10.314;2022-12-10T15:28:46;21.03;;;9.80;;
21140;SDS011;10728;53.284;10.314;2022-12-10T15:33:53;17.13;;;9.73;;
21140;SDS011;10728;53.284;10.314;2022-12-10T15:41:48;22.67;;;12.07;;
21140;SDS011;10728;53.284;10.314;2022-12-10T15:49:29;16.93;;;9.37;;
21140;SDS011;10728;53.284;10.314;2022-12-10T15:51:55;19.20;;;9.70;;
21140;SDS011;10728;53.284;10.314;2022-12-10T15:54:27;17.63;;;10.00;;
21140;SDS011;10728;53.284;10.314;2022-12-10T15:59:41;21.10;;;10.63;;
21140;SDS011;10728;53.284;10.314;2022-12-10T16:02:31;19.47;;;12.43;;
21140;SDS011;10728;53.284;10.314;2022-12-10T16:05:31;21.80;;;11.13;;
21140;SDS011;10728;53.284;10.314;2022-12-10T16:08:22;17.80;;;10.20;;
21140;SDS011;10728;53.284;10.314;2022-12-10T16:14:34;19.93;;;10.30;;
21140;SDS011;10728;53.284;10.314;2022-12-10T16:17:00;20.10;;;9.77;;
21140;SDS011;10728;53.284;10.314;2022-12-10T16:19:26;16.83;;;8.90;;
21140;SDS011;10728;53.284;10.314;2022-12-10T16:21:52;19.60;;;9.50;;
21140;SDS011;10728;53.284;10.314;2022-12-10T16:24:17;17.10;;;9.00;;
21140;SDS011;10728;53.284;10.314;2022-12-10T16:26:43;17.90;;;10.57;;
21140;SDS011;10728;53.284;10.314;2022-12-10T16:29:09;18.07;;;10.00;;
21140;SDS011;10728;53.284;10.314;2022-12-10T16:32:27;18.70;;;9.63;;
21140;SDS011;10728;53.284;10.314;2022-12-10T16:34:56;22.07;;;10.27;;
21140;SDS011;10728;53.284;10.314;2022-12-10T16:37:22;18.83;;;9.87;;
21140;SDS011;10728;53.284;10.314;2022-12-10T16:39:47;15.10;;;9.07;;
21140;SDS011;10728;53.284;10.314;2022-12-10T16:42:13;19.87;;;9.80;;
21140;SDS011;10728;53.284;10.314;2022-12-10T16:44:38;15.97;;;9.00;;
21140;SDS011;10728;53.284;10.314;2022-12-10T16:47:11;19.07;;;9.57;;
21140;SDS011;10728;53.284;10.314;2022-12-10T16:51:00;18.40;;;9.67;;
21140;SDS011;10728;53.284;10.314;2022-12-10T16:58:00;18.73;;;9.30;;
21140;SDS011;10728;53.284;10.314;2022-12-10T17:01:52;15.80;;;8.87;;
21140;SDS011;10728;53.284;10.314;2022-12-10T17:08:57;17.60;;;9.43;;
21140;SDS011;10728;53.284;10.314;2022-12-10T17:20:16;20.03;;;10.00;;
21140;SDS011;10728;53.284;10.314;2022-12-10T17:38:26;20.27;;;10.13;;
21140;SDS011;10728;53.284;10.314;2022-12-10T17:45:39;19.67;;;10.37;;
21140;SDS011;10728;53.284;10.314;2022-12-10T17:49:36;17.97;;;9.53;;
21140;SDS011;10728;53.284;10.314;2022-12-10T17:53:15;20.13;;;10.10;;
21140;SDS011;10728;53.284;10.314;2022-12-10T17:57:17;18.63;;;9.83;;
21140;SDS011;10728;53.284;10.314;2022-12-10T18:11:23;21.17;;;9.93;;
21140;SDS011;10728;53.284;10.314;2022-12-10T18:14:41;17.13;;;9.97;;
21140;SDS011;10728;53.284;10.314;2022-12-10T18:18:06;19.13;;;10.40;;
21140;SDS011;10728;53.284;10.314;2022-12-10T18:20:33;23.23;;;11.43;;
21140;SDS011;10728;53.284;10.314;2022-12-10T18:23:10;21.03;;;10.53;;
21140;SDS011;10728;53.284;10.314;2022-12-10T18:26:14;19.63;;;10.83;;
21140;SDS011;10728;53.284;10.314;2022-12-10T18:28:44;21.63;;;11.17;;
21140;SDS011;10728;53.284;10.314;2022-12-10T18:31:20;21.87;;;10.60;;
21140;SDS011;10728;53.284;10.314;2022-12-10T18:34:12;18.37;;;10.13;;
21140;SDS011;10728;53.284;10.314;2022-12-10T18:37:55;24.33;;;12.47;;
21140;SDS011;10728;53.284;10.314;2022-12-10T18:40:24;19.07;;;9.97;;
21140;SDS011;10728;53.284;10.314;2022-12-10T18:43:21;21.20;;;11.33;;
21140;SDS011;10728;53.284;10.314;2022-12-10T18:45:48;21.93;;;11.60;;
21140;SDS011;10728;53.284;10.314;2022-12-10T18:48:29;20.80;;;10.53;;
21140;SDS011;10728;53.284;10.314;2022-12-10T18:51:34;17.63;;;9.97;;
21140;SDS011;10728;53.284;10.314;2022-12-10T18:54:07;19.67;;;11.23;;
21140;SDS011;10728;53.284;10.314;2022-12-10T18:56:47;20.23;;;10.30;;
21140;SDS011;10728;53.284;10.314;2022-12-10T18:59:29;16.13;;;9.07;;
21140;SDS011;10728;53.284;10.314;2022-12-10T19:01:56;19.27;;;9.70;;
21140;SDS011;10728;53.284;10.314;2022-12-10T19:07:28;16.70;;;9.20;;
21140;SDS011;10728;53.284;10.314;2022-12-10T19:09:55;18.63;;;9.93;;
21140;SDS011;10728;53.284;10.314;2022-12-10T19:12:52;19.23;;;9.63;;
21140;SDS011;10728;53.284;10.314;2022-12-10T19:15:19;17.30;;;9.80;;
21140;SDS011;10728;53.284;10.314;2022-12-10T19:18:51;19.90;;;10.23;;
21140;SDS011;10728;53.284;10.314;2022-12-10T19:21:33;20.93;;;10.20;;
21140;SDS011;10728;53.284;10.314;2022-12-10T19:24:09;21.27;;;11.40;;
21140;SDS011;10728;53.284;10.314;2022-12-10T19:26:55;19.23;;;10.70;;
21140;SDS011;10728;53.284;10.314;2022-12-10T19:29:35;20.63;;;11.20;;
21140;SDS011;10728;53.284;10.314;2022-12-10T19:32:08;22.07;;;11.30;;
21140;SDS011;10728;53.284;10.314;2022-12-10T19:34:37;20.87;;;10.30;;
21140;SDS011;10728;53.284;10.314;2022-12-10T19:37:13;21.40;;;10.73;;
21140;SDS011;10728;53.284;10.314;2022-12-10T19:39:52;20.33;;;10.70;;
21140;SDS011;10728;53.284;10.314;2022-12-10T19:45:06;21.63;;;12.00;;
21140;SDS011;10728;53.284;10.314;2022-12-10T19:48:48;18.77;;;10.00;;
21140;SDS011;10728;53.284;10.314;2022-12-10T19:51:15;21.67;;;12.27;;
21140;SDS011;10728;53.284;10.314;2022-12-10T19:53:42;24.47;;;11.80;;
21140;SDS011;10728;53.284;10.314;2022-12-10T19:56:17;20.03;;;11.17;;
21140;SDS011;10728;53.284;10.314;2022-12-10T19:58:50;19.07;;;10.53;;
21140;SDS011;10728;53.284;10.314;2022-12-10T20:02:13;21.70;;;10.67;;